Terminal Aerodrome Forecast
Issued by NWS

Home | Current Version | Previous Version | Text Only | Print | Product List | Glossary On
Versions: 1 2 3 4 5 6 7 8 9 10 11 12 13 14 15 16 17 18 19
000
FTUS41 KGYX 272328
TAFAUG
TAF
KAUG 272328Z 2800/2824 VRB03KT P6SM SCT100
     FM280800 VRB03KT 6SM -RA BR BKN025
     FM281700 26010G20KT P6SM SCT040 BKN100=

USA.gov is the U.S. government's official web portal to all federal, state and local government web resources and services.